Time;durP1;ratioP1;P1;durP2;ratioP2;P2;SDS_P1;SDS_P2;PMS_P1;PMS_P2;Temp;Humidity;BMP_temperature;BMP_pressure;BME280_temperature;BME280_humidity;BME280_pressure;Samples;Min_cycle;Max_cycle;Signal;HPM_P1;HPM_P2
2022/05/07 03:13:36;;;;;;;26.90;21.52;;;17.90;65.30;;;;;;5085912;23;20097;-70
2022/05/07 03:16:02;;;;;;;26.83;20.90;;;17.80;65.40;;;;;;4940647;29;20056;-74
2022/05/07 03:18:28;;;;;;;24.50;19.02;;;17.80;65.60;;;;;;4940925;29;20047;-72
2022/05/07 03:20:54;;;;;;;25.25;19.20;;;17.80;65.90;;;;;;4941219;29;20043;-72
2022/05/07 03:23:20;;;;;;;23.77;18.75;;;17.80;66.00;;;;;;4941121;29;20380;-72
2022/05/07 03:25:46;;;;;;;25.30;17.95;;;17.90;66.00;;;;;;4940870;29;20058;-72
2022/05/07 03:28:11;;;;;;;25.33;17.67;;;17.90;66.00;;;;;;4940689;29;20048;-72
2022/05/07 03:30:37;;;;;;;23.80;18.40;;;17.90;65.90;;;;;;4940682;29;20052;-74
2022/05/07 03:33:03;;;;;;;23.88;17.02;;;17.90;65.90;;;;;;4924095;29;20129;-74
2022/05/07 03:35:29;;;;;;;26.27;17.73;;;17.90;66.00;;;;;;4940363;29;20372;-74
2022/05/07 03:37:55;;;;;;;26.10;16.55;;;18.00;66.20;;;;;;4940301;29;20047;-74
2022/05/07 03:40:22;;;;;;;19.55;16.33;;;17.90;66.30;;;;;;4940398;29;20053;-74
2022/05/07 03:42:47;;;;;;;21.67;15.98;;;17.90;66.40;;;;;;4940115;29;20036;-73
2022/05/07 03:45:13;;;;;;;26.10;16.52;;;18.00;66.40;;;;;;4940485;29;20087;-73
2022/05/07 03:47:39;;;;;;;20.80;15.90;;;18.00;66.50;;;;;;4923667;29;20087;-73
2022/05/07 03:50:06;;;;;;;23.10;14.80;;;18.00;66.70;;;;;;4939925;29;20441;-74
2022/05/07 03:55:16;;;;;;;24.42;15.73;;;18.00;66.80;;;;;;4940211;29;20048;-74
2022/05/07 03:57:42;;;;;;;24.05;16.35;;;18.00;66.80;;;;;;4939055;29;20044;-70
2022/05/07 04:00:09;;;;;;;23.60;17.20;;;18.00;66.80;;;;;;4936209;29;20464;-80
2022/05/07 04:02:35;;;;;;;24.17;17.80;;;18.00;66.80;;;;;;4940245;29;20043;-74
2022/05/07 04:05:04;;;;;;;26.25;19.33;;;18.00;66.70;;;;;;4940423;29;20058;-74
2022/05/07 04:07:31;;;;;;;23.58;18.60;;;18.00;66.70;;;;;;4939853;29;20083;-72
2022/05/07 04:09:56;;;;;;;22.05;18.25;;;18.00;66.60;;;;;;4940222;29;20459;-74
2022/05/07 04:12:22;;;;;;;21.92;19.17;;;18.00;66.50;;;;;;4940362;29;20044;-76
2022/05/07 04:14:50;;;;;;;25.05;18.00;;;18.00;66.50;;;;;;4939305;29;20064;-76
2022/05/07 04:17:15;;;;;;;27.75;20.27;;;18.00;66.40;;;;;;4939311;29;20058;-75
2022/05/07 04:19:41;;;;;;;21.23;17.85;;;18.00;66.40;;;;;;4939783;29;20040;-72
2022/05/07 04:22:07;;;;;;;29.52;19.42;;;18.00;66.50;;;;;;4925495;29;20075;-73
2022/05/07 04:24:33;;;;;;;24.35;19.20;;;18.00;66.40;;;;;;4939570;29;20051;-77
2022/05/07 04:27:02;;;;;;;22.23;18.40;;;18.00;66.50;;;;;;4939618;29;20052;-74
2022/05/07 04:29:28;;;;;;;24.23;18.75;;;18.00;66.50;;;;;;4939546;29;20052;-79
2022/05/07 04:31:54;;;;;;;24.52;20.08;;;18.00;66.50;;;;;;4939618;29;20047;-77
2022/05/07 04:34:19;;;;;;;23.77;19.55;;;18.00;66.40;;;;;;4939525;29;20039;-73
2022/05/07 04:36:45;;;;;;;26.20;20.42;;;18.00;66.40;;;;;;4939703;29;20047;-74
2022/05/07 04:39:11;;;;;;;24.70;19.75;;;18.00;66.40;;;;;;4939464;29;20448;-73
2022/05/07 04:41:37;;;;;;;24.10;19.17;;;18.00;66.50;;;;;;4939626;29;20051;-73
2022/05/07 04:44:02;;;;;;;24.40;19.42;;;18.00;66.40;;;;;;4939380;29;20423;-73
2022/05/07 04:46:28;;;;;;;22.67;20.02;;;18.00;66.40;;;;;;4939641;29;20047;-72
2022/05/07 04:48:54;;;;;;;24.45;20.15;;;18.00;66.40;;;;;;4939248;29;20054;-75
2022/05/07 04:51:20;;;;;;;22.15;18.83;;;18.00;66.40;;;;;;4938893;29;20107;-75
2022/05/07 04:53:45;;;;;;;24.55;18.50;;;18.00;66.40;;;;;;4939259;29;20043;-70
2022/05/07 04:56:11;;;;;;;20.73;16.40;;;18.00;66.70;;;;;;4936138;29;20118;-73
2022/05/07 04:58:37;;;;;;;19.20;16.83;;;18.00;66.90;;;;;;4938368;29;20051;-73
2022/05/07 05:01:02;;;;;;;20.10;16.02;;;18.00;66.80;;;;;;4939315;29;20058;-75
2022/05/07 05:03:28;;;;;;;18.55;14.50;;;18.00;66.70;;;;;;4938521;29;20079;-75
2022/05/07 05:05:54;;;;;;;17.00;13.65;;;18.10;66.60;;;;;;4939204;29;20051;-79
2022/05/07 05:08:19;;;;;;;16.08;13.07;;;18.10;66.50;;;;;;4922460;29;20372;-75
2022/05/07 05:10:45;;;;;;;12.95;10.98;;;18.30;66.60;;;;;;4938808;29;20118;-77
2022/05/07 05:13:11;;;;;;;13.95;11.50;;;18.40;66.40;;;;;;4938784;29;20433;-74
2022/05/07 05:15:37;;;;;;;15.73;10.80;;;18.50;66.20;;;;;;4938754;29;20052;-78
2022/05/07 05:18:03;;;;;;;13.85;9.13;;;18.70;66.00;;;;;;4938693;29;20044;-77
2022/05/07 05:20:29;;;;;;;19.50;14.73;;;18.80;65.80;;;;;;4938777;29;20392;-76
2022/05/07 05:22:55;;;;;;;14.77;9.93;;;18.60;65.10;;;;;;4938681;29;20043;-76
2022/05/07 05:25:21;;;;;;;11.77;8.93;;;18.60;66.00;;;;;;4938850;29;20043;-83
2022/05/07 05:27:48;;;;;;;13.18;8.27;;;18.80;66.10;;;;;;4938756;29;20460;-78
2022/05/07 05:30:13;;;;;;;10.15;7.45;;;18.80;65.90;;;;;;4937889;29;20051;-77
2022/05/07 05:32:39;;;;;;;13.63;9.10;;;18.90;65.80;;;;;;4927517;29;20052;-78
2022/05/07 05:35:05;;;;;;;12.63;8.13;;;18.70;66.00;;;;;;4938989;29;20098;-78
2022/05/07 05:37:31;;;;;;;9.10;7.20;;;18.80;66.10;;;;;;4922519;29;20051;-77
2022/05/07 05:39:57;;;;;;;9.13;7.53;;;18.90;66.00;;;;;;4921778;29;20060;-79
2022/05/07 05:42:24;;;;;;;8.65;6.65;;;19.00;65.90;;;;;;4938786;29;20051;-79
2022/05/07 05:44:50;;;;;;;21.23;14.85;;;19.00;65.80;;;;;;4921743;29;20107;-77
2022/05/07 05:47:17;;;;;;;23.10;16.48;;;19.00;65.40;;;;;;4937821;29;20047;-84
2022/05/07 05:49:43;;;;;;;13.27;8.93;;;18.70;65.90;;;;;;4938142;29;20047;-78
2022/05/07 05:52:09;;;;;;;11.32;7.68;;;18.70;66.50;;;;;;4921159;29;20039;-79
2022/05/07 05:54:35;;;;;;;11.35;7.70;;;18.70;66.50;;;;;;4938217;29;20050;-77
2022/05/07 05:57:01;;;;;;;11.68;7.07;;;18.80;66.50;;;;;;4938339;29;20048;-79
2022/05/07 05:59:28;;;;;;;11.10;6.40;;;18.80;66.40;;;;;;4937627;29;20059;-77
2022/05/07 06:01:54;;;;;;;16.15;10.88;;;18.80;66.40;;;;;;4938049;29;20064;-79
2022/05/07 06:04:19;;;;;;;13.77;8.07;;;18.80;66.30;;;;;;4921268;29;20427;-78
2022/05/07 06:06:45;;;;;;;14.50;8.50;;;18.90;66.60;;;;;;4938071;29;20187;-75
2022/05/07 06:09:11;;;;;;;10.75;6.95;;;18.80;66.60;;;;;;4938085;29;20043;-73
2022/05/07 06:11:37;;;;;;;12.10;6.72;;;18.80;66.60;;;;;;4937085;29;20048;-74
2022/05/07 06:14:03;;;;;;;15.63;9.30;;;18.80;67.10;;;;;;4933988;29;20071;-87
2022/05/07 06:16:29;;;;;;;22.13;9.05;;;18.80;68.30;;;;;;4921270;29;20044;-72
2022/05/07 06:18:55;;;;;;;17.10;7.28;;;18.80;68.40;;;;;;4921356;29;20495;-75
2022/05/07 06:21:20;;;;;;;14.30;7.95;;;18.80;68.30;;;;;;4937779;29;20040;-73
2022/05/07 06:23:49;;;;;;;21.95;7.88;;;18.80;68.50;;;;;;4937597;29;20031;-75
2022/05/07 06:29:01;;;;;;;38.38;22.42;;;18.80;69.10;;;;;;4938037;29;20043;-74
2022/05/07 06:31:27;;;;;;;24.95;19.23;;;18.80;68.70;;;;;;4937185;29;20470;-75
2022/05/07 06:33:52;;;;;;;33.65;24.08;;;18.80;68.60;;;;;;4937026;29;20101;-76
2022/05/07 06:36:18;;;;;;;33.97;25.63;;;18.70;68.70;;;;;;4936642;29;20083;-77
2022/05/07 06:38:44;;;;;;;38.42;25.27;;;18.80;68.80;;;;;;4919620;29;20086;-78
2022/05/07 06:41:09;;;;;;;36.10;24.55;;;18.70;68.90;;;;;;4937062;29;20055;-78
2022/05/07 06:43:35;;;;;;;34.53;25.10;;;18.70;68.90;;;;;;4937382;29;20066;-77
2022/05/07 06:46:01;;;;;;;33.42;23.88;;;18.70;68.80;;;;;;4937709;29;20127;-78
2022/05/07 06:48:27;;;;;;;42.35;25.63;;;18.70;68.80;;;;;;4937062;29;20472;-78
2022/05/07 06:50:54;;;;;;;37.67;24.85;;;18.70;68.80;;;;;;4937511;29;20134;-77
2022/05/07 06:53:20;;;;;;;39.47;25.17;;;18.70;68.90;;;;;;4937776;29;20043;-77
2022/05/07 06:55:55;;;;;;;36.33;23.92;;;18.70;68.80;;;;;;4920785;29;20064;-76
2022/05/07 06:58:22;;;;;;;37.08;24.42;;;18.70;68.70;;;;;;4937158;29;20126;-71
2022/05/07 07:01:29;;;;;;;41.03;25.33;;;18.70;68.80;;;;;;4936862;29;20043;-83
2022/05/07 07:03:55;;;;;;;39.60;21.58;;;18.70;68.90;;;;;;4936729;29;20064;-76
2022/05/07 07:06:21;;;;;;;48.33;22.38;;;18.70;69.10;;;;;;4937549;29;20125;-77
2022/05/07 07:08:48;;;;;;;34.72;22.23;;;18.70;69.00;;;;;;4937329;29;20036;-76
2022/05/07 07:11:14;;;;;;;41.00;20.98;;;18.70;69.00;;;;;;4937299;29;20067;-76
2022/05/07 07:13:41;;;;;;;36.00;21.25;;;18.70;69.10;;;;;;4920211;29;20135;-77
2022/05/07 07:16:06;;;;;;;36.78;21.05;;;18.70;69.10;;;;;;4937201;29;20475;-77
2022/05/07 07:18:32;;;;;;;34.20;21.23;;;18.70;69.10;;;;;;4937388;29;20039;-76
2022/05/07 07:20:58;;;;;;;36.67;19.92;;;18.70;69.10;;;;;;4937076;29;20480;-76
2022/05/07 07:23:24;;;;;;;35.78;20.80;;;18.70;69.20;;;;;;4940586;29;20059;-81
2022/05/07 07:25:50;;;;;;;37.05;24.48;;;18.70;69.00;;;;;;4940686;29;20345;-76
2022/05/07 07:28:16;;;;;;;46.08;25.65;;;18.70;68.80;;;;;;4940288;29;20046;-73
2022/05/07 07:30:42;;;;;;;48.65;26.70;;;18.70;68.80;;;;;;4941381;29;20062;-74
2022/05/07 07:33:07;;;;;;;50.88;27.38;;;18.70;68.70;;;;;;4940704;29;20055;-75
2022/05/07 07:35:33;;;;;;;43.88;27.23;;;18.70;68.90;;;;;;4940094;29;20052;-73
2022/05/07 07:37:59;;;;;;;50.42;27.67;;;18.70;68.90;;;;;;4939454;29;20048;-74
2022/05/07 07:40:25;;;;;;;54.65;27.65;;;18.70;69.10;;;;;;4940544;29;20058;-77
2022/05/07 07:42:53;;;;;;;57.95;26.33;;;18.70;69.00;;;;;;4939347;29;20040;-84
2022/05/07 07:48:03;;;;;;;;;;;18.70;68.60;;;;;;4940992;29;20464;-70
2022/05/07 07:50:38;;;;;;;42.58;25.48;;;18.70;68.50;;;;;;4939896;29;19973;-70
2022/05/07 07:53:08;;;;;;;46.03;25.85;;;18.70;68.70;;;;;;4940213;29;20055;-71
2022/05/07 07:55:36;;;;;;;39.55;25.45;;;18.70;68.80;;;;;;4940324;29;20059;-71
2022/05/07 07:58:07;;;;;;;39.35;25.27;;;18.70;68.90;;;;;;4939708;29;20048;-74
2022/05/07 08:00:35;;;;;;;43.30;24.33;;;18.70;69.60;;;;;;4939893;29;20052;-71
2022/05/07 08:03:10;;;;;;;44.25;24.35;;;18.70;69.10;;;;;;4939386;29;20483;-71
2022/05/07 08:05:37;;;;;;;38.03;23.60;;;18.70;69.10;;;;;;4940444;29;20051;-73
2022/05/07 08:13:36;;;;;;;46.20;22.70;;;18.70;69.40;;;;;;4939052;29;20068;-72
2022/05/07 08:16:03;;;;;;;33.88;22.15;;;18.70;69.40;;;;;;4939641;29;20052;-76
2022/05/07 08:18:29;;;;;;;39.50;23.00;;;18.70;69.20;;;;;;4939707;29;20048;-76
2022/05/07 08:20:56;;;;;;;36.20;23.95;;;18.70;69.10;;;;;;4939972;29;20123;-76
2022/05/07 08:23:22;;;;;;;37.95;24.30;;;18.70;69.00;;;;;;4938973;29;20115;-76
2022/05/07 08:25:48;;;;;;;41.85;26.80;;;18.70;68.90;;;;;;4940071;29;20051;-71
2022/05/07 08:28:15;;;;;;;42.50;23.90;;;18.70;68.80;;;;;;4939458;29;20138;-72
2022/05/07 08:30:41;;;;;;;35.60;22.83;;;18.70;68.90;;;;;;4939031;29;20044;-70
2022/05/07 08:33:07;;;;;;;42.65;22.75;;;18.70;69.70;;;;;;4938815;29;20083;-71
2022/05/07 08:35:33;;;;;;;43.83;23.38;;;18.70;69.30;;;;;;4939574;29;20445;-71
2022/05/07 08:37:58;;;;;;;35.20;21.83;;;18.70;69.30;;;;;;4939410;29;20048;-71
2022/05/07 08:40:25;;;;;;;38.75;21.15;;;18.70;69.40;;;;;;4939329;29;20059;-72
2022/05/07 08:42:51;;;;;;;33.40;18.33;;;18.70;69.40;;;;;;4939249;29;20127;-73
2022/05/07 08:45:17;;;;;;;39.55;19.23;;;18.60;69.40;;;;;;4939186;29;20154;-73
2022/05/07 08:47:44;;;;;;;31.00;18.60;;;18.60;69.10;;;;;;4939102;29;20051;-73
2022/05/07 08:50:12;;;;;;;35.85;20.40;;;18.60;68.90;;;;;;4939278;29;20039;-72
2022/05/07 08:52:41;;;;;;;45.70;19.52;;;18.60;69.00;;;;;;4939111;29;20055;-72
2022/05/07 08:55:10;;;;;;;32.92;17.77;;;18.60;69.50;;;;;;4938910;29;20077;-73
2022/05/07 08:57:36;;;;;;;33.55;18.15;;;18.70;69.80;;;;;;4938365;29;20535;-72
2022/05/07 09:00:02;;;;;;;39.10;19.27;;;18.70;69.50;;;;;;4939169;29;20043;-72
2022/05/07 09:02:36;;;;;;;34.03;18.48;;;18.70;69.10;;;;;;4935825;29;20056;-72
2022/05/07 09:05:02;;;;;;;40.33;19.30;;;18.70;69.30;;;;;;4939099;29;20119;-72
2022/05/07 09:07:27;;;;;;;31.00;18.13;;;18.60;69.20;;;;;;4938713;29;20050;-72
2022/05/07 09:09:57;;;;;;;32.33;18.23;;;18.60;69.10;;;;;;4921881;29;20091;-72
2022/05/07 09:12:28;;;;;;;35.90;19.25;;;18.60;69.10;;;;;;4938818;29;20035;-72
2022/05/07 09:15:02;;;;;;;27.17;17.90;;;18.60;69.00;;;;;;4938228;29;20060;-72
2022/05/07 09:17:28;;;;;;;25.83;17.40;;;18.70;69.00;;;;;;4938724;29;20043;-72
2022/05/07 09:19:54;;;;;;;29.75;17.48;;;18.60;68.70;;;;;;4918057;29;20062;-72
2022/05/07 09:22:19;;;;;;;25.98;17.42;;;18.60;68.60;;;;;;4932759;29;20527;-72
2022/05/07 09:24:56;;;;;;;28.25;16.65;;;18.60;68.60;;;;;;4935781;29;20098;-72
2022/05/07 09:27:22;;;;;;;26.80;17.05;;;18.60;68.40;;;;;;4935897;29;20083;-72
2022/05/07 09:30:02;;;;;;;25.98;14.95;;;18.60;68.40;;;;;;4938024;29;20168;-72
2022/05/07 09:32:38;;;;;;;23.80;15.95;;;18.60;68.10;;;;;;4922097;29;20044;-72
2022/05/07 09:38:01;;;;;;;24.08;16.38;;;18.60;68.00;;;;;;4938136;29;20060;-72
2022/05/07 09:40:27;;;;;;;23.63;13.98;;;18.60;68.00;;;;;;4938245;29;20054;-72
2022/05/07 09:42:57;;;;;;;27.13;14.85;;;18.60;68.00;;;;;;4937665;29;20364;-72
2022/05/07 09:45:27;;;;;;;26.35;15.20;;;18.60;67.90;;;;;;4938074;29;20051;-72
2022/05/07 09:47:55;;;;;;;24.98;11.18;;;18.60;67.80;;;;;;4937775;29;20048;-77
2022/05/07 09:50:43;;;;;;;22.65;13.25;;;18.60;67.90;;;;;;4938510;29;20066;-80
2022/05/07 09:58:45;;;;;;;22.85;13.65;;;18.70;67.70;;;;;;4937993;29;20056;-76
2022/05/07 10:01:32;;;;;;;24.92;14.07;;;18.70;67.70;;;;;;4937393;29;20107;-70
2022/05/07 10:04:09;;;;;;;22.88;14.50;;;18.70;67.90;;;;;;4937874;29;20047;-71
2022/05/07 10:06:35;;;;;;;18.70;12.40;;;18.70;67.90;;;;;;4937684;29;20048;-72
2022/05/07 10:09:25;;;;;;;19.73;10.98;;;18.70;67.90;;;;;;4938058;29;20134;-71
2022/05/07 10:11:55;;;;;;;17.17;10.48;;;18.80;68.60;;;;;;4937552;29;20468;-71
2022/05/07 10:14:30;;;;;;;15.02;9.18;;;18.80;68.90;;;;;;4937621;29;20133;-70
2022/05/07 10:17:10;;;;;;;17.48;9.32;;;18.80;69.10;;;;;;4937792;29;20051;-71
2022/05/07 10:19:44;;;;;;;17.20;8.45;;;18.80;69.00;;;;;;4938047;29;20056;-71
2022/05/07 10:22:26;;;;;;;14.32;7.15;;;18.90;68.80;;;;;;4937308;29;20060;-70
2022/05/07 10:25:11;;;;;;;14.45;7.60;;;18.90;68.60;;;;;;4932588;29;20051;-70
2022/05/07 10:27:44;;;;;;;15.88;7.38;;;18.90;68.20;;;;;;4937429;29;20048;-72
2022/05/07 10:30:15;;;;;;;13.07;7.25;;;18.90;68.20;;;;;;4937720;29;20059;-71
2022/05/07 10:33:03;;;;;;;12.32;6.47;;;18.90;68.20;;;;;;4937382;29;20075;-71
2022/05/07 10:35:45;;;;;;;13.55;6.30;;;18.90;67.60;;;;;;4937900;29;20345;-71
2022/05/07 10:38:28;;;;;;;8.88;6.30;;;18.90;67.50;;;;;;4937297;29;20131;-71
2022/05/07 10:40:59;;;;;;;14.32;5.95;;;18.90;68.00;;;;;;4928229;29;20083;-71
2022/05/07 10:43:38;;;;;;;12.65;5.35;;;18.90;68.10;;;;;;4936565;29;20139;-72
2022/05/07 10:46:09;;;;;;;12.85;6.63;;;18.90;68.00;;;;;;4937722;29;20052;-71
2022/05/07 10:48:52;;;;;;;9.48;6.38;;;18.90;68.30;;;;;;4937338;29;20048;-71
2022/05/07 10:51:17;;;;;;;12.10;6.95;;;18.90;68.30;;;;;;4936617;29;20435;-71
2022/05/07 10:53:43;;;;;;;10.55;6.05;;;18.90;68.10;;;;;;4935970;29;20131;-71
2022/05/07 10:56:14;;;;;;;13.85;7.18;;;18.90;68.00;;;;;;4936985;29;20460;-78
2022/05/07 10:58:48;;;;;;;16.95;8.35;;;18.90;66.40;;;;;;4924446;29;20099;-70
2022/05/07 11:01:19;;;;;;;12.57;5.75;;;18.80;66.60;;;;;;4941237;29;20051;-71
2022/05/07 11:03:46;;;;;;;13.90;6.40;;;18.80;67.80;;;;;;4941219;29;20054;-79
2022/05/07 11:06:11;;;;;;;11.75;6.07;;;18.80;68.10;;;;;;4924153;29;20079;-76
2022/05/07 11:08:49;;;;;;;19.45;6.97;;;18.90;68.00;;;;;;4924735;29;20400;-73
2022/05/07 11:11:16;;;;;;;12.23;6.43;;;18.90;67.70;;;;;;4941144;29;20055;-73
2022/05/07 11:13:50;;;;;;;11.85;7.30;;;18.90;67.90;;;;;;4941001;29;20052;-73
2022/05/07 11:16:19;;;;;;;;;;;18.90;68.00;;;;;;4941610;29;20051;-72
2022/05/07 11:18:51;;;;;;;13.50;6.53;;;18.90;68.40;;;;;;4940764;29;19923;-73
2022/05/07 11:21:22;;;;;;;15.38;6.47;;;18.90;68.70;;;;;;4940596;29;20504;-71
2022/05/07 11:23:59;;;;;;;12.77;5.85;;;18.90;68.90;;;;;;4940793;29;20079;-72
2022/05/07 11:26:26;;;;;;;15.02;6.22;;;18.90;69.20;;;;;;4940749;29;20040;-72
2022/05/07 11:28:52;;;;;;;19.25;8.68;;;18.90;69.30;;;;;;4940702;29;20115;-74
2022/05/07 11:31:29;;;;;;;23.00;16.30;;;18.90;69.90;;;;;;4940135;29;20087;-76
2022/05/07 11:34:09;;;;;;;22.55;10.68;;;19.00;73.80;;;;;;4940783;29;20079;-75
2022/05/07 11:36:36;;;;;;;20.65;15.43;;;19.00;75.00;;;;;;4924210;29;20123;-72
2022/05/07 11:39:07;;;;;;;20.52;12.02;;;19.00;75.40;;;;;;4940696;29;20050;-74
2022/05/07 11:41:34;;;;;;;15.45;10.63;;;19.10;77.70;;;;;;4940713;29;20055;-81
2022/05/07 11:47:02;;;;;;;19.90;11.85;;;19.20;78.00;;;;;;4938304;29;20104;-74
2022/05/07 11:49:33;;;;;;;21.10;13.15;;;19.20;80.00;;;;;;4940496;29;20044;-75
2022/05/07 11:52:10;;;;;;;22.60;11.18;;;19.30;80.10;;;;;;4940484;29;20158;-75
2022/05/07 11:54:36;;;;;;;14.63;9.52;;;19.30;80.90;;;;;;4936650;29;20063;-75
2022/05/07 11:57:03;;;;;;;17.40;9.02;;;19.30;80.40;;;;;;4939669;29;20046;-79
2022/05/07 11:59:29;;;;;;;17.00;9.32;;;19.30;78.80;;;;;;4923703;29;20075;-79
2022/05/07 12:01:55;;;;;;;12.00;8.45;;;19.30;77.50;;;;;;4939936;29;20420;-81
2022/05/07 12:04:30;;;;;;;14.43;8.02;;;19.30;76.30;;;;;;4922868;29;20135;-81
2022/05/07 12:06:56;;;;;;;13.85;8.55;;;19.30;75.20;;;;;;4927235;29;20098;-80
2022/05/07 12:09:22;;;;;;;16.95;8.18;;;19.20;75.00;;;;;;4939225;29;20055;-81
2022/05/07 12:11:49;;;;;;;14.32;8.43;;;19.20;74.00;;;;;;4939922;29;20053;-81
2022/05/07 12:14:15;;;;;;;11.90;7.28;;;19.20;73.00;;;;;;4939265;29;20453;-80
2022/05/07 12:19:34;;;;;;;11.82;7.47;;;19.20;72.40;;;;;;4931288;29;20142;-81
2022/05/07 12:30:13;;;;;;;12.25;6.25;;;19.10;71.30;;;;;;4937743;29;20064;-81
2022/05/07 12:32:43;;;;;;;10.45;6.18;;;19.10;71.30;;;;;;4922890;29;20066;-81
2022/05/07 12:35:10;;;;;;;9.60;6.15;;;19.10;71.80;;;;;;4939561;29;20050;-81
2022/05/07 12:37:37;;;;;;;9.07;6.50;;;19.10;70.80;;;;;;4923039;29;20043;-81
2022/05/07 12:40:07;;;;;;;9.52;5.72;;;19.10;70.50;;;;;;4908684;29;20047;-81
2022/05/07 12:42:34;;;;;;;8.35;5.00;;;19.10;70.00;;;;;;4938953;29;20048;-81
2022/05/07 12:45:00;;;;;;;7.38;5.20;;;19.10;69.60;;;;;;4935165;29;20059;-81
2022/05/07 12:47:26;;;;;;;7.15;4.68;;;19.10;69.50;;;;;;4922323;29;20047;-81
2022/05/07 12:49:52;;;;;;;5.43;4.72;;;19.10;69.50;;;;;;4923107;29;20052;-81
2022/05/07 12:52:18;;;;;;;7.72;4.22;;;19.10;69.40;;;;;;4922180;29;20380;-81
2022/05/07 12:54:43;;;;;;;7.57;4.38;;;19.10;69.40;;;;;;4938415;29;20547;-81
2022/05/07 12:57:10;;;;;;;8.25;4.97;;;19.10;69.30;;;;;;4938998;29;20056;-79
2022/05/07 12:59:38;;;;;;;11.82;4.10;;;19.10;69.20;;;;;;4924328;29;20148;-80
2022/05/07 13:02:06;;;;;;;7.47;3.72;;;19.10;69.00;;;;;;4935537;29;20062;-80
2022/05/07 13:04:32;;;;;;;7.45;4.30;;;19.10;68.40;;;;;;4921148;29;20120;-79
2022/05/07 13:06:58;;;;;;;8.20;4.38;;;19.10;66.40;;;;;;4939185;29;20055;-80
2022/05/07 13:09:27;;;;;;;6.38;4.00;;;19.10;67.30;;;;;;4922221;29;20127;-87
2022/05/07 13:11:53;;;;;;;7.70;3.83;;;19.10;67.30;;;;;;4906766;29;20062;-79
2022/05/07 13:14:32;;;;;;;6.35;4.00;;;19.10;67.40;;;;;;4938488;29;20066;-82
2022/05/07 13:16:58;;;;;;;6.70;3.75;;;19.10;67.60;;;;;;4921894;29;20609;-80
2022/05/07 13:19:25;;;;;;;8.07;4.00;;;19.10;67.80;;;;;;4921483;29;20123;-77
2022/05/07 13:21:50;;;;;;;19.15;8.65;;;19.10;68.10;;;;;;4938508;29;20043;-74
2022/05/07 13:24:17;;;;;;;18.05;8.73;;;19.10;68.50;;;;;;4938443;29;20453;-75
2022/05/07 13:26:42;;;;;;;17.45;10.57;;;19.10;68.00;;;;;;4938226;29;20373;-76
2022/05/07 13:29:09;;;;;;;25.95;16.88;;;19.10;67.90;;;;;;4938403;29;20048;-79
2022/05/07 13:31:37;;;;;;;21.48;13.80;;;19.10;68.40;;;;;;4937960;29;20044;-80
2022/05/07 13:34:06;;;;;;;14.07;10.88;;;19.10;68.70;;;;;;4938443;29;20040;-85
2022/05/07 13:36:32;;;;;;;16.50;10.65;;;19.10;68.60;;;;;;4921877;29;20464;-77
2022/05/07 13:38:58;;;;;;;9.70;6.72;;;19.10;69.30;;;;;;4938047;29;20082;-72
2022/05/07 13:41:28;;;;;;;13.23;6.13;;;19.20;69.00;;;;;;4938476;29;20047;-72
2022/05/07 13:43:55;;;;;;;12.27;4.93;;;19.20;69.00;;;;;;4938062;29;20039;-72
2022/05/07 13:46:21;;;;;;;11.70;5.15;;;19.20;69.00;;;;;;4938347;29;20055;-72
2022/05/07 13:48:47;;;;;;;5.28;4.20;;;19.20;69.00;;;;;;4937959;29;20241;-72
2022/05/07 13:51:13;;;;;;;6.65;4.05;;;19.20;68.80;;;;;;4938090;29;20055;-72
2022/05/07 13:53:39;;;;;;;6.22;3.97;;;19.20;68.90;;;;;;4937178;29;20499;-72
2022/05/07 13:56:05;;;;;;;7.65;3.90;;;19.20;68.90;;;;;;4938464;29;20048;-74
2022/05/07 13:58:30;;;;;;;8.88;3.05;;;19.20;68.80;;;;;;4938072;29;20063;-71
2022/05/07 14:00:56;;;;;;;5.53;2.97;;;19.20;67.70;;;;;;4938371;29;20054;-71
2022/05/07 14:03:23;;;;;;;10.52;3.35;;;19.10;66.70;;;;;;4937344;29;20138;-73
2022/05/07 14:05:52;;;;;;;9.40;3.40;;;19.10;67.20;;;;;;4937852;29;20055;-70
2022/05/07 14:08:18;;;;;;;6.63;3.08;;;19.10;67.20;;;;;;4934276;29;20043;-71
2022/05/07 14:10:44;;;;;;;4.82;2.53;;;19.10;67.40;;;;;;4938156;29;20527;-72
2022/05/07 14:13:10;;;;;;;6.22;2.58;;;19.10;66.60;;;;;;4937166;29;20035;-70
2022/05/07 14:15:35;;;;;;;6.45;2.50;;;19.10;66.50;;;;;;4937104;29;20114;-71
2022/05/07 14:18:01;;;;;;;6.57;2.05;;;19.10;66.70;;;;;;4938264;29;20048;-72
2022/05/07 14:20:27;;;;;;;10.20;2.63;;;19.10;66.20;;;;;;4937196;29;20061;-71
2022/05/07 14:22:53;;;;;;;5.60;2.08;;;19.10;66.30;;;;;;4936901;29;20047;-71
2022/05/07 14:25:19;;;;;;;8.73;2.70;;;19.10;66.60;;;;;;4918981;29;20185;-73
2022/05/07 14:27:45;;;;;;;4.82;2.40;;;19.10;66.70;;;;;;4925704;29;20179;-71
2022/05/07 14:30:11;;;;;;;9.27;2.45;;;19.10;67.90;;;;;;4937242;29;20047;-73
2022/05/07 14:32:38;;;;;;;8.63;2.70;;;19.10;68.10;;;;;;4936777;29;20044;-71
2022/05/07 14:35:06;;;;;;;5.50;2.15;;;19.10;68.10;;;;;;4937718;29;20058;-72
2022/05/07 14:37:32;;;;;;;11.18;3.25;;;19.20;68.70;;;;;;4934800;29;20047;-75
2022/05/07 14:39:57;;;;;;;10.57;3.10;;;19.30;69.20;;;;;;4937283;29;20094;-75
2022/05/07 14:42:23;;;;;;;10.13;3.70;;;19.20;68.00;;;;;;4937651;29;20051;-76
2022/05/07 14:44:49;;;;;;;11.48;4.43;;;19.20;67.10;;;;;;4937511;29;20070;-75
2022/05/07 14:47:15;;;;;;;10.13;4.60;;;19.30;68.30;;;;;;4937675;29;20073;-75
2022/05/07 14:49:40;;;;;;;9.85;4.13;;;19.30;68.30;;;;;;4937465;29;20122;-75
2022/05/07 14:52:07;;;;;;;8.48;4.93;;;19.30;67.70;;;;;;4937645;29;20047;-75
2022/05/07 14:54:32;;;;;;;9.85;4.72;;;19.30;66.60;;;;;;4938320;29;20052;-75
2022/05/07 14:56:58;;;;;;;8.82;5.00;;;19.20;66.00;;;;;;4920462;29;20464;-75
2022/05/07 14:59:24;;;;;;;10.18;4.65;;;19.10;66.30;;;;;;4937390;29;20054;-79
2022/05/07 15:01:50;;;;;;;29.98;6.05;;;19.10;67.40;;;;;;4904606;29;20048;-84
2022/05/07 15:04:15;;;;;;;30.65;6.22;;;19.10;68.80;;;;;;4937176;29;20131;-74
2022/05/07 15:06:41;;;;;;;15.75;4.78;;;19.30;69.60;;;;;;4937303;29;20118;-73
2022/05/07 15:11:51;;;;;;;14.93;4.68;;;19.30;70.30;;;;;;4937198;29;20063;-73
2022/05/07 15:14:17;;;;;;;13.98;4.50;;;19.30;70.50;;;;;;4937017;29;20118;-73
2022/05/07 15:16:44;;;;;;;11.20;4.97;;;19.40;70.70;;;;;;4920963;29;20453;-73
2022/05/07 15:19:10;;;;;;;11.82;5.10;;;19.40;70.80;;;;;;4937305;29;20066;-73
2022/05/07 15:21:36;;;;;;;11.25;4.63;;;19.40;70.70;;;;;;4937096;29;20483;-73
2022/05/07 15:24:02;;;;;;;9.65;4.78;;;19.40;70.40;;;;;;4937612;29;20036;-72
2022/05/07 15:26:29;;;;;;;9.93;4.15;;;19.40;70.30;;;;;;4936908;29;20421;-72
2022/05/07 15:28:55;;;;;;;10.23;4.50;;;19.40;70.20;;;;;;4937231;29;20491;-72
2022/05/07 15:31:20;;;;;;;6.32;4.22;;;19.40;70.00;;;;;;4937237;29;20043;-72
2022/05/07 15:36:50;;;;;;;7.93;2.90;;;19.40;69.40;;;;;;4937192;29;20047;-72
2022/05/07 15:39:19;;;;;;;9.95;3.28;;;19.40;69.30;;;;;;4920702;29;20040;-72
2022/05/07 15:41:48;;;;;;;8.68;3.33;;;19.40;69.00;;;;;;4937038;29;20400;-72
2022/05/07 15:44:14;;;;;;;8.27;2.92;;;19.40;68.90;;;;;;4936899;29;20115;-72
2022/05/07 15:46:43;;;;;;;8.38;3.65;;;19.40;68.90;;;;;;4940494;29;20117;-72
2022/05/07 15:49:10;;;;;;;7.25;3.10;;;19.40;69.00;;;;;;4938065;29;20059;-74
2022/05/07 15:51:39;;;;;;;9.73;3.45;;;19.40;69.00;;;;;;4940596;29;20056;-74
2022/05/07 15:54:05;;;;;;;8.57;3.17;;;19.40;69.10;;;;;;4940947;29;20447;-74
2022/05/07 15:56:30;;;;;;;8.98;2.80;;;19.40;69.20;;;;;;4940641;29;20207;-73
2022/05/07 15:58:56;;;;;;;8.48;2.92;;;19.40;69.20;;;;;;4940348;29;20058;-73
2022/05/07 16:01:22;;;;;;;13.48;2.97;;;19.40;69.30;;;;;;4940343;29;20357;-71
2022/05/07 16:03:47;;;;;;;7.95;3.60;;;19.40;69.40;;;;;;4940692;29;20044;-73
2022/05/07 16:06:13;;;;;;;10.10;3.30;;;19.40;69.30;;;;;;4940168;29;20539;-73
2022/05/07 16:08:39;;;;;;;10.13;3.00;;;19.40;70.00;;;;;;4939798;29;20413;-74
2022/05/07 16:11:05;;;;;;;15.20;3.80;;;19.40;70.20;;;;;;4939831;29;20091;-73
2022/05/07 16:13:31;;;;;;;21.80;3.80;;;19.40;70.00;;;;;;4939545;29;20099;-74
2022/05/07 16:15:57;;;;;;;14.60;3.60;;;19.40;69.10;;;;;;4940082;29;20098;-74
2022/05/07 16:18:23;;;;;;;18.98;4.10;;;19.40;68.80;;;;;;4940156;29;20060;-72
2022/05/07 16:20:49;;;;;;;14.38;3.92;;;19.50;69.60;;;;;;4940193;29;20383;-73
2022/05/07 16:25:59;;;;;;;12.45;4.28;;;19.50;68.80;;;;;;4938333;29;20479;-72
2022/05/07 16:28:26;;;;;;;15.35;4.70;;;19.50;68.70;;;;;;4939784;29;20048;-72
2022/05/07 16:30:53;;;;;;;15.30;3.95;;;19.40;68.50;;;;;;4939741;29;20087;-72
2022/05/07 16:33:20;;;;;;;16.73;4.15;;;19.40;68.50;;;;;;4939386;29;20439;-73
2022/05/07 16:35:46;;;;;;;19.95;4.10;;;19.40;68.60;;;;;;4939135;29;20051;-73